Time;durP1;ratioP1;P1;durP2;ratioP2;P2;SDS_P1;SDS_P2;PMS_P1;PMS_P2;Temp;Humidity;BMP_temperature;BMP_pressure;BME280_temperature;BME280_humidity;BME280_pressure;Samples;Min_cycle;Max_cycle;Signal;HPM_P1;HPM_P2
2021/01/12 00:01:42;;;;;;;48.40;17.70;;;-3.50;99.90;;;;;;5022376;28;20703;-65
2021/01/12 00:04:09;;;;;;;49.05;18.00;;;-3.60;99.90;;;;;;5027346;28;20053;-64
2021/01/12 00:06:36;;;;;;;61.05;18.92;;;-3.60;99.90;;;;;;5024973;28;20048;-64
2021/01/12 00:09:03;;;;;;;48.70;17.85;;;-3.60;99.90;;;;;;5027911;28;20103;-64
2021/01/12 00:11:30;;;;;;;34.08;11.93;;;-3.60;99.90;;;;;;5023220;28;20475;-64
2021/01/12 00:13:57;;;;;;;44.63;14.88;;;-3.60;99.90;;;;;;5023797;28;20046;-65
2021/01/12 00:16:23;;;;;;;35.38;14.15;;;-3.60;99.90;;;;;;5026296;28;20053;-65
2021/01/12 00:18:50;;;;;;;48.35;15.98;;;-3.70;99.90;;;;;;5026112;28;20048;-65
2021/01/12 00:21:24;;;;;;;45.30;16.70;;;-3.70;99.90;;;;;;5027427;28;20528;-64
2021/01/12 00:23:51;;;;;;;57.65;16.65;;;-3.80;99.90;;;;;;5026256;28;20520;-64
2021/01/12 00:26:17;;;;;;;53.45;16.45;;;-3.80;99.90;;;;;;5018046;28;20138;-64
2021/01/12 00:28:44;;;;;;;43.45;15.07;;;-3.80;99.90;;;;;;5003058;28;20050;-65
2021/01/12 00:31:10;;;;;;;34.13;13.45;;;-3.80;99.90;;;;;;5026371;28;20103;-64
2021/01/12 00:33:37;;;;;;;53.15;15.85;;;-3.80;99.90;;;;;;5029303;28;20489;-64
2021/01/12 00:36:08;;;;;;;41.42;14.68;;;-3.90;99.90;;;;;;5025364;28;20111;-64
2021/01/12 00:38:35;;;;;;;49.38;17.10;;;-3.90;99.90;;;;;;5016071;28;20052;-65
2021/01/12 00:41:06;;;;;;;48.28;17.02;;;-3.90;99.90;;;;;;5026095;28;20041;-65
2021/01/12 00:43:33;;;;;;;54.67;16.77;;;-4.00;99.90;;;;;;5019662;28;20064;-64
2021/01/12 00:45:59;;;;;;;50.03;18.50;;;-4.00;99.90;;;;;;5021843;28;20045;-64
2021/01/12 00:48:26;;;;;;;48.22;17.55;;;-4.00;99.90;;;;;;5028370;28;20472;-64
2021/01/12 00:50:52;;;;;;;50.42;18.10;;;-4.00;99.90;;;;;;5029978;28;20049;-64
2021/01/12 00:53:19;;;;;;;43.53;14.32;;;-4.00;99.90;;;;;;5024914;28;20519;-64
2021/01/12 00:55:46;;;;;;;48.78;17.05;;;-4.00;99.90;;;;;;5029520;28;20057;-64
2021/01/12 00:58:12;;;;;;;43.22;14.55;;;-4.10;99.90;;;;;;5031976;28;20049;-64
2021/01/12 01:00:38;;;;;;;50.67;17.02;;;-4.10;99.90;;;;;;5033885;28;20370;-64
2021/01/12 01:03:05;;;;;;;52.60;18.15;;;-4.10;99.90;;;;;;5034220;28;20404;-64
2021/01/12 01:05:31;;;;;;;37.08;14.43;;;-4.10;99.90;;;;;;5033097;28;20037;-64
2021/01/12 01:08:00;;;;;;;43.80;15.15;;;-4.10;99.90;;;;;;5031579;28;20049;-64
2021/01/12 01:10:26;;;;;;;40.25;15.10;;;-4.10;99.90;;;;;;5032648;28;20049;-64
2021/01/12 01:12:53;;;;;;;50.05;18.08;;;-4.10;99.90;;;;;;5026758;28;20037;-64
2021/01/12 01:15:19;;;;;;;47.30;16.05;;;-4.20;99.90;;;;;;5026107;28;20041;-64
2021/01/12 01:17:46;;;;;;;48.83;16.08;;;-4.20;99.90;;;;;;5031187;28;20045;-64
2021/01/12 01:20:13;;;;;;;46.28;15.35;;;-4.20;99.90;;;;;;5022825;28;20646;-64
2021/01/12 01:22:40;;;;;;;36.22;15.48;;;-4.20;99.90;;;;;;5031910;28;20040;-65
2021/01/12 01:25:07;;;;;;;46.90;17.52;;;-4.20;99.90;;;;;;5031918;28;20045;-64
2021/01/12 01:27:33;;;;;;;47.30;16.80;;;-4.30;99.90;;;;;;5025569;28;20045;-64
2021/01/12 01:30:00;;;;;;;42.33;14.13;;;-4.30;99.90;;;;;;5022120;28;20050;-64
2021/01/12 01:32:26;;;;;;;50.53;15.98;;;-4.30;99.90;;;;;;5026900;28;20378;-65
2021/01/12 01:34:53;;;;;;;43.13;14.80;;;-4.30;99.90;;;;;;5030828;28;20049;-64
2021/01/12 01:37:19;;;;;;;50.53;15.68;;;-4.30;99.90;;;;;;5027114;28;20100;-64
2021/01/12 01:39:46;;;;;;;38.55;13.60;;;-4.30;99.90;;;;;;5024662;28;20047;-64
2021/01/12 01:42:12;;;;;;;48.35;16.50;;;-4.40;99.90;;;;;;5019553;28;20042;-64
2021/01/12 01:44:39;;;;;;;40.55;15.07;;;-4.40;99.90;;;;;;5031385;28;20049;-64
2021/01/12 01:47:06;;;;;;;58.72;17.50;;;-4.40;99.90;;;;;;5029673;28;20064;-65
2021/01/12 01:49:32;;;;;;;46.85;15.27;;;-4.40;99.90;;;;;;5024211;28;20507;-64
2021/01/12 01:52:00;;;;;;;32.88;11.98;;;-4.40;99.90;;;;;;5009865;28;20049;-64
2021/01/12 01:54:28;;;;;;;43.75;14.60;;;-4.50;99.90;;;;;;5031645;28;20049;-64
2021/01/12 01:56:55;;;;;;;46.10;15.65;;;-4.50;99.90;;;;;;5028870;28;20045;-64
2021/01/12 01:59:21;;;;;;;40.38;14.65;;;-4.50;99.90;;;;;;5013303;28;20103;-64
2021/01/12 02:01:48;;;;;;;39.05;12.63;;;-4.50;99.90;;;;;;5029640;28;20037;-64
2021/01/12 02:04:26;;;;;;;62.50;16.42;;;-4.50;99.90;;;;;;5014129;28;20052;-64
2021/01/12 02:06:53;;;;;;;37.67;12.68;;;-4.50;99.90;;;;;;5019661;28;20044;-64
2021/01/12 02:09:29;;;;;;;43.03;16.15;;;-4.50;99.90;;;;;;5025602;28;20838;-64
2021/01/12 02:11:57;;;;;;;37.85;13.77;;;-4.50;99.90;;;;;;5023709;28;20053;-64
2021/01/12 02:14:27;;;;;;;35.85;12.98;;;-4.50;99.90;;;;;;5030397;28;20100;-64
2021/01/12 02:16:56;;;;;;;49.65;16.80;;;-4.60;99.90;;;;;;5031189;28;20083;-64
2021/01/12 02:19:26;;;;;;;46.40;14.52;;;-4.60;99.90;;;;;;5030553;28;20128;-64
2021/01/12 02:22:01;;;;;;;47.88;17.40;;;-4.60;99.90;;;;;;5025414;28;20080;-64
2021/01/12 02:24:30;;;;;;;41.17;16.00;;;-4.60;99.90;;;;;;5031494;28;20045;-64
2021/01/12 02:26:57;;;;;;;45.60;17.95;;;-4.60;99.90;;;;;;5033637;28;20700;-64
2021/01/12 02:29:23;;;;;;;39.25;13.48;;;-4.60;99.90;;;;;;5014372;28;20543;-64
2021/01/12 02:31:51;;;;;;;50.33;14.32;;;-4.60;99.90;;;;;;5028373;28;20049;-64
2021/01/12 02:34:22;;;;;;;55.33;16.73;;;-4.60;99.90;;;;;;5030650;28;20033;-64
2021/01/12 02:36:49;;;;;;;46.20;16.50;;;-4.60;99.90;;;;;;5030528;28;20038;-64
2021/01/12 02:39:16;;;;;;;55.47;18.52;;;-4.60;99.90;;;;;;5028272;28;20477;-64
2021/01/12 02:41:42;;;;;;;50.45;18.02;;;-4.60;99.90;;;;;;5025829;28;20711;-64
2021/01/12 02:44:21;;;;;;;35.58;14.07;;;-4.70;99.90;;;;;;5028999;28;20049;-64
2021/01/12 02:46:49;;;;;;;34.65;13.20;;;-4.70;99.90;;;;;;5032597;28;20091;-64
2021/01/12 02:49:16;;;;;;;53.40;17.00;;;-4.70;99.90;;;;;;5030311;28;20777;-64
2021/01/12 02:51:42;;;;;;;38.45;14.68;;;-4.70;99.90;;;;;;5029889;28;20038;-64
2021/01/12 02:54:09;;;;;;;51.60;19.50;;;-4.70;99.90;;;;;;5028912;28;20060;-64
2021/01/12 02:56:36;;;;;;;44.63;16.42;;;-4.80;99.90;;;;;;5030724;28;22328;-64
2021/01/12 02:59:02;;;;;;;41.85;14.45;;;-4.80;99.90;;;;;;5025710;28;20084;-64
2021/01/12 03:01:29;;;;;;;39.33;12.98;;;-4.80;99.90;;;;;;5029933;28;20037;-64
2021/01/12 03:03:56;;;;;;;46.40;14.02;;;-4.80;99.90;;;;;;5026017;28;20496;-64
2021/01/12 03:06:23;;;;;;;40.22;15.30;;;-4.80;99.90;;;;;;5027261;28;20049;-64
2021/01/12 03:08:49;;;;;;;35.28;12.40;;;-4.80;99.90;;;;;;5025665;28;20099;-64
2021/01/12 03:11:16;;;;;;;50.78;15.43;;;-4.80;99.90;;;;;;5031544;28;20042;-64
2021/01/12 03:13:43;;;;;;;44.40;14.85;;;-4.80;99.90;;;;;;5028793;28;20103;-64
2021/01/12 03:16:09;;;;;;;43.83;13.68;;;-4.80;99.90;;;;;;5006682;28;20049;-64
2021/01/12 03:18:36;;;;;;;42.38;15.43;;;-4.80;99.90;;;;;;5031362;28;20452;-64
2021/01/12 03:21:03;;;;;;;50.38;16.20;;;-4.90;99.90;;;;;;5028709;28;20061;-64
2021/01/12 03:23:30;;;;;;;55.28;17.13;;;-4.90;99.90;;;;;;5029638;28;20044;-64
2021/01/12 03:25:56;;;;;;;44.30;15.20;;;-4.90;99.90;;;;;;5021113;28;20049;-64
2021/01/12 03:28:23;;;;;;;43.80;14.93;;;-5.00;99.90;;;;;;5027124;28;20038;-64
2021/01/12 03:30:50;;;;;;;42.55;15.57;;;-5.00;99.90;;;;;;5027805;28;20056;-64
2021/01/12 03:33:16;;;;;;;51.60;17.70;;;-5.00;99.90;;;;;;5027503;28;20446;-64
2021/01/12 03:35:43;;;;;;;55.25;18.85;;;-4.90;99.90;;;;;;5023760;28;20056;-64
2021/01/12 03:38:09;;;;;;;58.40;19.48;;;-4.90;99.90;;;;;;5029200;28;20069;-65
2021/01/12 03:40:36;;;;;;;55.30;17.88;;;-4.90;99.90;;;;;;5012259;28;20053;-64
2021/01/12 03:43:02;;;;;;;47.75;16.42;;;-4.90;99.90;;;;;;5010034;28;20436;-64
2021/01/12 03:45:29;;;;;;;54.42;17.98;;;-4.90;99.90;;;;;;5030183;28;20061;-64
2021/01/12 03:47:56;;;;;;;55.67;16.45;;;-4.90;99.90;;;;;;5028515;28;20111;-64
2021/01/12 03:50:25;;;;;;;56.55;16.38;;;-4.90;99.90;;;;;;5035171;28;20056;-64
2021/01/12 03:52:54;;;;;;;49.92;17.83;;;-5.00;99.90;;;;;;5025829;28;20087;-64
2021/01/12 03:55:21;;;;;;;49.28;18.67;;;-5.00;99.90;;;;;;5026153;28;20053;-64
2021/01/12 03:57:48;;;;;;;43.47;16.40;;;-5.00;99.90;;;;;;5027006;28;20040;-64
2021/01/12 04:00:15;;;;;;;59.17;18.80;;;-5.00;99.90;;;;;;5027343;28;20044;-64
2021/01/12 04:02:42;;;;;;;50.53;15.73;;;-5.00;99.90;;;;;;5026877;28;20049;-64
2021/01/12 04:05:09;;;;;;;47.08;15.40;;;-5.00;99.90;;;;;;5026388;28;20083;-64
2021/01/12 04:07:37;;;;;;;37.28;13.73;;;-5.00;99.90;;;;;;5026928;28;20079;-64
2021/01/12 04:10:05;;;;;;;41.60;15.85;;;-5.00;99.90;;;;;;5022225;28;20436;-64
2021/01/12 04:12:32;;;;;;;37.88;13.20;;;-5.00;99.90;;;;;;5026178;28;20095;-64
2021/01/12 04:14:59;;;;;;;36.83;12.00;;;-5.00;99.90;;;;;;5024463;28;20080;-64
2021/01/12 04:17:25;;;;;;;31.70;11.30;;;-5.00;99.90;;;;;;5024700;28;20042;-64
2021/01/12 04:19:52;;;;;;;43.17;14.30;;;-5.10;99.90;;;;;;5026963;28;20511;-64
2021/01/12 04:22:18;;;;;;;33.15;11.48;;;-5.10;99.90;;;;;;5027686;28;20056;-64
2021/01/12 04:24:45;;;;;;;49.55;14.68;;;-5.20;99.90;;;;;;5018559;28;20075;-64
2021/01/12 04:27:11;;;;;;;35.60;12.52;;;-5.20;99.90;;;;;;5027110;28;20025;-64
2021/01/12 04:29:38;;;;;;;37.47;12.10;;;-5.20;99.90;;;;;;5023743;28;20046;-64
2021/01/12 04:32:05;;;;;;;33.55;12.07;;;-5.20;99.90;;;;;;5026524;28;20064;-64
2021/01/12 04:34:32;;;;;;;42.35;13.15;;;-5.20;99.90;;;;;;5021459;28;20112;-64
2021/01/12 04:36:58;;;;;;;33.45;11.38;;;-5.20;99.90;;;;;;5020478;28;20488;-64
2021/01/12 04:39:27;;;;;;;35.42;11.13;;;-5.20;99.90;;;;;;5011763;28;20546;-64
2021/01/12 04:41:54;;;;;;;35.83;12.98;;;-5.20;99.90;;;;;;5026059;28;20040;-64
2021/01/12 04:44:20;;;;;;;46.40;13.50;;;-5.20;99.90;;;;;;5020860;28;20041;-64
2021/01/12 04:46:47;;;;;;;40.80;12.82;;;-5.30;99.90;;;;;;5011190;28;20056;-64
2021/01/12 04:49:14;;;;;;;36.60;11.18;;;-5.30;99.90;;;;;;5028846;28;20041;-64
2021/01/12 04:51:41;;;;;;;30.80;11.32;;;-5.30;99.90;;;;;;5023979;28;20049;-64
2021/01/12 04:54:08;;;;;;;42.67;14.98;;;-5.30;99.90;;;;;;5026318;28;20095;-64
2021/01/12 04:56:34;;;;;;;35.15;13.00;;;-5.30;99.90;;;;;;5017958;28;20049;-64
2021/01/12 04:59:01;;;;;;;35.60;11.32;;;-5.20;99.90;;;;;;5027036;28;20038;-64
2021/01/12 05:01:29;;;;;;;36.75;11.93;;;-5.30;99.90;;;;;;5021600;28;20038;-64
2021/01/12 05:03:56;;;;;;;37.53;10.85;;;-5.30;99.90;;;;;;5014564;28;20436;-64
2021/01/12 05:06:25;;;;;;;46.22;13.23;;;-5.30;99.90;;;;;;5027678;28;20148;-64
2021/01/12 05:08:55;;;;;;;46.72;12.93;;;-5.40;99.90;;;;;;5028241;28;20496;-64
2021/01/12 05:11:31;;;;;;;35.45;13.05;;;-5.40;99.90;;;;;;5029127;28;20050;-64
2021/01/12 05:14:12;;;;;;;32.42;11.15;;;-5.40;99.90;;;;;;5023294;28;20492;-64
2021/01/12 05:16:50;;;;;;;39.83;14.55;;;-5.40;99.90;;;;;;5037611;28;20058;-64
2021/01/12 05:19:28;;;;;;;34.20;11.63;;;-5.40;99.90;;;;;;5024274;28;20656;-64
2021/01/12 05:22:05;;;;;;;41.42;12.73;;;-5.40;99.90;;;;;;5028362;28;20132;-64
2021/01/12 05:24:41;;;;;;;19.42;7.38;;;-5.40;99.90;;;;;;5026011;28;20041;-64
2021/01/12 05:27:10;;;;;;;34.60;11.30;;;-5.40;99.90;;;;;;5025283;28;20060;-64
2021/01/12 05:29:39;;;;;;;38.25;10.50;;;-5.40;99.90;;;;;;5024526;28;20052;-64
2021/01/12 05:32:10;;;;;;;38.70;12.45;;;-5.40;99.90;;;;;;5023211;28;20133;-64
2021/01/12 05:34:41;;;;;;;28.70;8.90;;;-5.40;99.90;;;;;;5012883;28;20046;-64
2021/01/12 05:37:09;;;;;;;34.83;9.73;;;-5.40;99.90;;;;;;5023960;28;20123;-64
2021/01/12 05:39:40;;;;;;;31.70;10.30;;;-5.40;99.90;;;;;;5027210;28;20703;-64
2021/01/12 05:42:09;;;;;;;32.70;9.68;;;-5.40;99.90;;;;;;5023540;28;20060;-64
2021/01/12 05:44:40;;;;;;;31.55;9.20;;;-5.40;99.90;;;;;;5032704;28;20052;-64
2021/01/12 05:47:14;;;;;;;28.02;8.48;;;-5.40;99.90;;;;;;5025903;28;20065;-64
2021/01/12 05:49:44;;;;;;;35.00;10.90;;;-5.50;99.90;;;;;;5028508;28;20515;-64
2021/01/12 05:52:11;;;;;;;40.20;10.80;;;-5.50;99.90;;;;;;5023238;28;20137;-64
2021/01/12 05:54:47;;;;;;;37.42;9.27;;;-5.50;99.90;;;;;;5028881;28;20107;-64
2021/01/12 05:57:21;;;;;;;29.83;9.25;;;-5.50;99.90;;;;;;5011706;28;20045;-64
2021/01/12 05:59:52;;;;;;;36.35;10.32;;;-5.60;99.90;;;;;;5022963;28;20452;-64
2021/01/12 06:02:28;;;;;;;38.88;11.50;;;-5.60;99.90;;;;;;5018407;28;20058;-64
2021/01/12 06:04:55;;;;;;;37.42;10.55;;;-5.60;99.90;;;;;;5034214;28;20038;-64
2021/01/12 06:07:22;;;;;;;40.45;10.55;;;-5.50;99.90;;;;;;5028236;28;20061;-64
2021/01/12 06:09:49;;;;;;;49.25;12.20;;;-5.60;99.90;;;;;;5032394;28;20040;-64
2021/01/12 06:12:16;;;;;;;46.53;11.80;;;-5.60;99.90;;;;;;5030411;28;20498;-64
2021/01/12 06:14:58;;;;;;;41.78;10.98;;;-5.60;99.90;;;;;;5032207;28;20057;-65
2021/01/12 06:17:31;;;;;;;40.08;12.70;;;-5.60;99.90;;;;;;5030332;28;20488;-64
2021/01/12 06:20:03;;;;;;;31.52;10.18;;;-5.50;99.90;;;;;;5011160;28;20639;-64
2021/01/12 06:22:41;;;;;;;24.88;6.47;;;-5.40;99.90;;;;;;5029563;28;20053;-64
2021/01/12 06:25:10;;;;;;;33.80;8.48;;;-5.40;99.90;;;;;;5031871;28;20400;-64
2021/01/12 06:27:37;;;;;;;35.50;10.52;;;-5.30;99.90;;;;;;5032348;28;20065;-65
2021/01/12 06:30:08;;;;;;;39.10;9.82;;;-5.30;99.90;;;;;;5028295;28;20034;-64
2021/01/12 06:32:36;;;;;;;32.40;8.77;;;-5.20;99.90;;;;;;5029963;28;20518;-65
2021/01/12 06:35:08;;;;;;;34.10;9.88;;;-5.20;99.90;;;;;;5031745;28;20045;-64
2021/01/12 06:37:41;;;;;;;40.95;10.73;;;-5.30;99.90;;;;;;5020914;28;20119;-64
2021/01/12 06:40:12;;;;;;;36.72;10.98;;;-5.20;99.90;;;;;;5028298;28;20413;-65
2021/01/12 06:42:39;;;;;;;36.63;10.70;;;-5.20;99.90;;;;;;5031471;28;20063;-64
2021/01/12 06:45:08;;;;;;;29.25;9.57;;;-5.30;99.90;;;;;;5036309;28;20527;-64
2021/01/12 06:47:37;;;;;;;32.42;9.40;;;-5.20;99.90;;;;;;5032678;28;20069;-65
2021/01/12 06:50:12;;;;;;;31.63;10.30;;;-5.20;99.90;;;;;;5030277;28;20579;-65
2021/01/12 06:52:40;;;;;;;40.47;11.40;;;-5.20;99.90;;;;;;5029129;28;20049;-64
2021/01/12 06:55:08;;;;;;;37.58;11.43;;;-5.20;99.90;;;;;;5028297;28;20118;-65
2021/01/12 06:57:35;;;;;;;51.65;12.82;;;-5.20;99.90;;;;;;5023411;28;20143;-64
2021/01/12 07:00:05;;;;;;;46.22;13.18;;;-5.10;99.90;;;;;;5031171;28;20049;-65
2021/01/12 07:02:32;;;;;;;38.63;10.80;;;-5.10;99.90;;;;;;5033260;28;20048;-64
2021/01/12 07:05:05;;;;;;;36.17;10.95;;;-5.10;99.90;;;;;;5030903;28;20049;-65
2021/01/12 07:07:36;;;;;;;49.50;13.13;;;-5.00;99.90;;;;;;5032478;28;20045;-64
2021/01/12 07:10:09;;;;;;;38.78;10.20;;;-5.00;99.90;;;;;;5032306;28;20121;-64
2021/01/12 07:12:36;;;;;;;51.83;13.85;;;-4.90;99.90;;;;;;5021462;28;20527;-64
2021/01/12 07:15:08;;;;;;;51.20;14.02;;;-4.90;99.90;;;;;;5028325;28;20548;-65
2021/01/12 07:17:53;;;;;;;39.67;14.43;;;-4.90;99.90;;;;;;5030006;28;20526;-65
2021/01/12 07:20:21;;;;;;;43.78;12.02;;;-4.90;99.90;;;;;;5036542;28;20788;-65
2021/01/12 07:22:53;;;;;;;37.22;12.52;;;-4.80;99.90;;;;;;5047960;28;20789;-65
2021/01/12 07:25:23;;;;;;;42.22;13.82;;;-4.70;99.90;;;;;;5022951;28;20045;-64
2021/01/12 07:28:15;;;;;;;44.28;12.95;;;-4.70;99.90;;;;;;5024611;28;20493;-65
2021/01/12 07:30:43;;;;;;;53.90;12.38;;;-4.60;99.90;;;;;;5028446;28;20045;-65
2021/01/12 07:33:24;;;;;;;40.83;12.52;;;-4.60;99.90;;;;;;5024880;28;20042;-65
2021/01/12 07:35:56;;;;;;;40.70;13.43;;;-4.50;99.90;;;;;;5030713;28;20052;-64
2021/01/12 07:38:30;;;;;;;43.60;12.15;;;-4.40;99.90;;;;;;5029188;28;20076;-64
2021/01/12 07:40:59;;;;;;;47.38;13.63;;;-4.40;99.90;;;;;;5028340;28;20034;-64
2021/01/12 07:43:27;;;;;;;43.78;12.88;;;-4.40;99.90;;;;;;5025124;28;20116;-64
2021/01/12 07:46:01;;;;;;;35.90;11.45;;;-4.30;99.90;;;;;;5030270;28;20042;-65
2021/01/12 07:48:29;;;;;;;38.80;11.95;;;-4.20;99.90;;;;;;5023692;28;20046;-64
2021/01/12 07:51:00;;;;;;;42.17;10.60;;;-4.10;99.90;;;;;;5026386;28;20044;-65
2021/01/12 07:53:31;;;;;;;43.08;12.70;;;-4.10;99.90;;;;;;5019588;28;20053;-64
2021/01/12 07:55:59;;;;;;;40.25;12.48;;;-4.10;99.90;;;;;;5027336;28;20119;-64
2021/01/12 07:58:28;;;;;;;48.13;14.18;;;-4.00;99.90;;;;;;5027396;28;20052;-64
2021/01/12 08:00:54;;;;;;;68.20;23.80;;;-3.90;99.90;;;;;;5020200;28;20057;-64
2021/01/12 08:03:35;;;;;;;70.13;21.83;;;-3.90;99.90;;;;;;5021109;28;20108;-64
2021/01/12 08:06:04;;;;;;;54.17;19.67;;;-3.90;99.90;;;;;;5024027;28;20049;-65
2021/01/12 08:08:31;;;;;;;59.00;20.83;;;-3.80;99.90;;;;;;5022765;28;20122;-64
2021/01/12 08:10:59;;;;;;;76.70;22.70;;;-3.70;99.90;;;;;;5028185;28;20056;-65
2021/01/12 08:13:26;;;;;;;83.68;25.35;;;-3.70;99.90;;;;;;5001370;28;20103;-65
2021/01/12 08:15:52;;;;;;;77.40;24.95;;;-3.60;99.90;;;;;;5022451;28;20080;-64
2021/01/12 08:18:21;;;;;;;80.55;24.40;;;-3.60;99.90;;;;;;5024787;28;20056;-64
2021/01/12 08:20:54;;;;;;;67.88;22.00;;;-3.60;99.90;;;;;;5014322;28;20061;-64
2021/01/12 08:23:21;;;;;;;;;;;-3.60;99.90;;;;;;5021697;28;20406;-64
2021/01/12 08:25:48;;;;;;;64.68;22.20;;;-3.50;99.90;;;;;;5014811;28;19932;-64
2021/01/12 08:28:15;;;;;;;77.55;29.83;;;-3.40;99.90;;;;;;5031895;28;20052;-65
2021/01/12 08:30:43;;;;;;;69.57;22.23;;;-3.40;99.90;;;;;;5028314;28;20049;-65
2021/01/12 08:33:20;;;;;;;52.70;17.85;;;-3.30;99.90;;;;;;5023210;28;20049;-65
2021/01/12 08:35:53;;;;;;;57.20;15.52;;;-3.10;99.90;;;;;;5024640;28;20080;-65
2021/01/12 08:38:22;;;;;;;46.80;15.23;;;-3.20;99.90;;;;;;5021776;28;20060;-65
2021/01/12 08:40:50;;;;;;;51.13;15.82;;;-3.10;99.90;;;;;;5015121;28;20512;-64
2021/01/12 08:43:20;;;;;;;37.97;14.65;;;-3.00;99.90;;;;;;5012773;28;20037;-65
2021/01/12 08:45:48;;;;;;;57.72;17.83;;;-2.80;99.90;;;;;;5032865;28;20655;-64
2021/01/12 08:48:17;;;;;;;43.83;13.00;;;-2.70;99.90;;;;;;5006484;28;20081;-64
2021/01/12 08:50:45;;;;;;;38.00;13.40;;;-2.60;99.90;;;;;;5014713;28;20052;-64
2021/01/12 08:53:25;;;;;;;47.63;15.45;;;-2.40;99.90;;;;;;5018354;28;20091;-64
2021/01/12 08:55:52;;;;;;;37.58;13.18;;;-2.40;99.90;;;;;;5012423;28;20045;-64
2021/01/12 08:58:18;;;;;;;37.83;13.27;;;-2.30;99.90;;;;;;5022402;28;20496;-64
2021/01/12 09:00:51;;;;;;;44.78;14.32;;;-2.10;99.90;;;;;;5016527;28;20128;-64
2021/01/12 09:03:19;;;;;;;47.67;15.63;;;-1.90;99.90;;;;;;5026530;28;20041;-64
2021/01/12 09:05:51;;;;;;;39.60;14.75;;;-1.90;99.90;;;;;;5030977;28;20116;-64
2021/01/12 09:08:21;;;;;;;54.83;17.60;;;-1.70;99.90;;;;;;5028783;28;20034;-64
2021/01/12 09:10:49;;;;;;;44.40;15.85;;;-1.50;99.90;;;;;;5009269;28;20048;-64
2021/01/12 09:13:16;;;;;;;45.38;16.45;;;-1.30;99.90;;;;;;5027108;28;20053;-64
2021/01/12 09:15:48;;;;;;;50.78;16.83;;;-1.50;99.90;;;;;;5022007;28;20068;-64
2021/01/12 09:18:19;;;;;;;;;;;-1.50;99.90;;;;;;5026821;28;20070;-64
2021/01/12 09:20:53;;;;;;;35.25;13.43;;;-1.40;99.90;;;;;;5027721;28;20306;-64
2021/01/12 09:23:21;;;;;;;39.33;14.05;;;-1.30;99.90;;;;;;5029094;28;20042;-64
2021/01/12 09:26:02;;;;;;;47.45;14.77;;;-1.00;99.90;;;;;;5031737;28;20041;-64
2021/01/12 09:28:35;;;;;;;45.42;15.18;;;-0.70;99.90;;;;;;5018492;28;20072;-64
2021/01/12 09:31:14;;;;;;;42.33;13.77;;;-0.50;99.90;;;;;;5029397;28;20053;-64
2021/01/12 09:33:48;;;;;;;47.15;15.55;;;-0.30;99.90;;;;;;5032120;28;20050;-65
2021/01/12 09:36:17;;;;;;;43.53;14.88;;;0.00;99.90;;;;;;5031846;28;20065;-65
2021/01/12 09:38:49;;;;;;;49.67;16.42;;;0.00;99.90;;;;;;5031648;28;20099;-65
2021/01/12 09:41:17;;;;;;;44.92;16.50;;;0.20;99.90;;;;;;5032129;28;20049;-65
2021/01/12 09:43:44;;;;;;;41.35;15.30;;;0.40;99.90;;;;;;5029822;28;20052;-65
2021/01/12 09:46:10;;;;;;;48.97;14.80;;;0.70;99.90;;;;;;5024608;28;20425;-65
2021/01/12 09:48:38;;;;;;;44.72;15.13;;;0.80;97.90;;;;;;5021419;28;20065;-65
2021/01/12 09:51:05;;;;;;;48.08;16.23;;;0.80;98.00;;;;;;5023184;28;20049;-65
2021/01/12 09:53:32;;;;;;;46.97;16.83;;;0.80;96.60;;;;;;5023344;28;20100;-65
2021/01/12 09:55:59;;;;;;;53.58;15.98;;;0.60;97.20;;;;;;5024338;28;20080;-65
2021/01/12 09:58:27;;;;;;;47.33;16.85;;;0.70;97.60;;;;;;5026556;28;20444;-65
2021/01/12 10:00:55;;;;;;;45.03;16.48;;;0.70;97.40;;;;;;5025425;28;20057;-65
2021/01/12 10:03:22;;;;;;;49.65;18.15;;;0.90;97.50;;;;;;5020704;28;20121;-65
2021/01/12 10:05:48;;;;;;;50.30;17.30;;;1.10;97.30;;;;;;5027005;28;20056;-65
2021/01/12 10:08:15;;;;;;;46.05;15.25;;;1.30;96.20;;;;;;5033132;28;20041;-65
2021/01/12 10:10:41;;;;;;;44.50;15.55;;;1.30;95.40;;;;;;5027683;28;20120;-65
2021/01/12 10:13:08;;;;;;;58.63;20.15;;;1.30;95.80;;;;;;5021936;28;20069;-65
2021/01/12 10:15:34;;;;;;;51.35;16.63;;;0.90;95.70;;;;;;5023379;28;20306;-65
2021/01/12 10:18:01;;;;;;;61.95;18.88;;;0.90;97.00;;;;;;5028011;28;20135;-66
2021/01/12 10:20:28;;;;;;;43.13;16.13;;;0.90;96.70;;;;;;5004539;28;20065;-65
2021/01/12 10:22:54;;;;;;;52.35;17.75;;;0.80;96.90;;;;;;5015071;28;20064;-65
2021/01/12 10:25:21;;;;;;;47.15;15.07;;;0.50;98.00;;;;;;5023704;28;20056;-65
2021/01/12 10:27:48;;;;;;;51.88;16.23;;;0.40;97.60;;;;;;5022829;28;20053;-65
2021/01/12 10:30:15;;;;;;;50.83;15.18;;;0.40;98.10;;;;;;5023317;28;20041;-65
2021/01/12 10:32:47;;;;;;;51.45;15.30;;;0.60;98.50;;;;;;5031408;28;20045;-64
2021/01/12 10:35:14;;;;;;;57.70;14.90;;;0.80;97.30;;;;;;5028643;28;20053;-65
2021/01/12 10:37:42;;;;;;;51.78;18.35;;;0.90;96.50;;;;;;5025780;28;20387;-64
2021/01/12 10:40:11;;;;;;;57.03;15.57;;;0.80;96.70;;;;;;5026259;28;20037;-65
2021/01/12 10:42:45;;;;;;;60.10;17.80;;;0.80;97.50;;;;;;5034159;28;20041;-64
2021/01/12 10:45:12;;;;;;;48.80;16.70;;;0.90;97.30;;;;;;5022887;28;20148;-65
2021/01/12 10:47:48;;;;;;;66.03;18.33;;;1.10;97.50;;;;;;5028183;28;20037;-65
2021/01/12 10:50:20;;;;;;;59.63;17.70;;;1.10;96.80;;;;;;5018413;28;20096;-65
2021/01/12 10:52:47;;;;;;;55.07;18.77;;;1.00;96.80;;;;;;5013963;28;20041;-65
2021/01/12 10:55:14;;;;;;;61.75;21.00;;;0.90;97.50;;;;;;5017191;28;20034;-65
2021/01/12 10:57:45;;;;;;;64.43;22.77;;;0.60;98.20;;;;;;5019627;28;20627;-65
2021/01/12 11:00:12;;;;;;;54.15;18.00;;;0.60;99.10;;;;;;5023864;28;20034;-65
2021/01/12 11:02:38;;;;;;;59.05;16.10;;;0.40;98.30;;;;;;5015820;28;20066;-65
2021/01/12 11:05:05;;;;;;;44.90;13.63;;;0.70;98.60;;;;;;5017481;28;20052;-66
2021/01/12 11:07:32;;;;;;;52.17;15.27;;;0.80;98.20;;;;;;5024031;28;20037;-66
2021/01/12 11:09:59;;;;;;;52.45;14.68;;;0.90;97.60;;;;;;5025921;28;20045;-66
2021/01/12 11:12:26;;;;;;;52.78;15.95;;;1.10;97.20;;;;;;5021258;28;20125;-65
2021/01/12 11:14:55;;;;;;;52.30;15.30;;;1.10;97.00;;;;;;5019867;28;20056;-66
2021/01/12 11:17:21;;;;;;;56.30;15.88;;;1.40;97.30;;;;;;5018340;28;20049;-65
2021/01/12 11:19:50;;;;;;;54.88;17.38;;;1.70;95.70;;;;;;5018002;28;20417;-66
2021/01/12 11:22:26;;;;;;;61.30;16.92;;;1.80;95.50;;;;;;5003489;28;20045;-65
2021/01/12 11:24:57;;;;;;;46.85;15.68;;;1.70;95.30;;;;;;5024356;28;20091;-64
2021/01/12 11:27:25;;;;;;;51.03;15.52;;;2.10;95.10;;;;;;5019701;28;20064;-66
2021/01/12 11:29:53;;;;;;;43.58;14.15;;;2.30;93.30;;;;;;5020004;28;20046;-66
2021/01/12 11:32:21;;;;;;;58.63;18.08;;;2.60;93.50;;;;;;5024462;28;20049;-65
2021/01/12 11:34:48;;;;;;;50.40;15.93;;;3.00;91.90;;;;;;5020486;28;20125;-65
2021/01/12 11:37:16;;;;;;;56.10;17.02;;;3.20;91.10;;;;;;5026353;28;20420;-66
2021/01/12 11:39:43;;;;;;;52.13;18.15;;;3.30;90.40;;;;;;5016556;28;20479;-66
2021/01/12 11:42:14;;;;;;;54.13;17.08;;;3.30;90.30;;;;;;5013673;28;20041;-65
2021/01/12 11:44:43;;;;;;;46.28;14.90;;;3.40;89.90;;;;;;5021453;28;20050;-65
2021/01/12 11:47:10;;;;;;;52.95;16.02;;;3.30;89.00;;;;;;5014431;28;20048;-64
2021/01/12 11:49:37;;;;;;;53.70;16.17;;;3.40;89.00;;;;;;5020073;28;20053;-64
2021/01/12 11:52:08;;;;;;;54.83;15.43;;;3.40;88.70;;;;;;5016685;28;20046;-65
2021/01/12 11:54:35;;;;;;;54.13;16.83;;;3.40;90.20;;;;;;5021143;28;20056;-64
2021/01/12 11:57:05;;;;;;;48.60;16.20;;;3.50;89.10;;;;;;5018303;28;20041;-64
2021/01/12 11:59:34;;;;;;;52.28;16.45;;;3.70;88.30;;;;;;5018927;28;20038;-65
2021/01/12 12:02:01;;;;;;;46.05;15.68;;;3.90;87.60;;;;;;5021411;28;20041;-65
2021/01/12 12:04:28;;;;;;;48.25;15.32;;;3.80;87.10;;;;;;5027030;28;20049;-65
2021/01/12 12:06:58;;;;;;;47.10;14.55;;;3.50;86.80;;;;;;5018948;28;20054;-66
2021/01/12 12:09:32;;;;;;;;;;;3.30;88.20;;;;;;5022409;28;20033;-65
2021/01/12 12:12:03;;;;;;;67.85;20.35;;;3.30;89.80;;;;;;5021757;28;19956;-66
2021/01/12 12:14:30;;;;;;;48.22;16.33;;;3.40;88.70;;;;;;5022915;28;20482;-65
2021/01/12 12:16:57;;;;;;;37.38;13.82;;;3.50;89.30;;;;;;5020823;28;20133;-64
2021/01/12 12:19:26;;;;;;;41.38;13.68;;;3.70;88.00;;;;;;5023029;28;20045;-66
2021/01/12 12:21:55;;;;;;;36.70;11.93;;;3.60;87.20;;;;;;5019871;28;20520;-66
2021/01/12 12:24:24;;;;;;;48.55;16.42;;;3.60;87.50;;;;;;4997773;28;20784;-67
2021/01/12 12:26:52;;;;;;;42.92;14.80;;;3.80;87.30;;;;;;5019961;28;20037;-66
2021/01/12 12:29:19;;;;;;;40.85;14.10;;;3.90;87.30;;;;;;5020472;28;20048;-66
2021/01/12 12:31:47;;;;;;;45.58;14.18;;;4.00;86.10;;;;;;5018688;28;20057;-66
2021/01/12 12:34:14;;;;;;;37.10;12.60;;;3.80;86.70;;;;;;5017053;28;20041;-66
2021/01/12 12:36:41;;;;;;;45.63;15.15;;;3.80;86.00;;;;;;5016440;28;20598;-67
2021/01/12 12:39:08;;;;;;;47.15;14.95;;;3.80;87.20;;;;;;5016470;28;20045;-66